Time;durP1;ratioP1;P1;durP2;ratioP2;P2;SDS_P1;SDS_P2;PMS_P1;PMS_P2;Temp;Humidity;BMP_temperature;BMP_pressure;BME280_temperature;BME280_humidity;BME280_pressure;Samples;Min_cycle;Max_cycle;Signal;HPM_P1;HPM_P2
2022/06/23 00:00:37;;;;;;;1.30;0.80;;;16.10;95.60;;;;;;5105588;28;20043;-58
2022/06/23 00:03:05;;;;;;;1.77;1.00;;;16.10;95.80;;;;;;5107664;28;20048;-56
2022/06/23 00:05:38;;;;;;;2.47;1.02;;;16.10;96.00;;;;;;5098386;28;20036;-58
2022/06/23 00:08:13;;;;;;;5.28;1.02;;;16.00;96.20;;;;;;5104316;28;20040;-56
2022/06/23 00:10:47;;;;;;;1.52;1.00;;;16.00;96.30;;;;;;5103857;28;20063;-55
2022/06/23 00:13:25;;;;;;;1.13;0.80;;;16.00;96.50;;;;;;5109597;28;20410;-55
2022/06/23 00:15:54;;;;;;;3.78;1.10;;;15.90;96.70;;;;;;5105572;28;20395;-58
2022/06/23 00:18:25;;;;;;;0.93;0.88;;;15.90;96.90;;;;;;5101180;28;20893;-57
2022/06/23 00:20:55;;;;;;;1.10;1.00;;;15.90;97.00;;;;;;5101898;28;20050;-57
2022/06/23 00:23:31;;;;;;;1.00;0.80;;;15.90;97.20;;;;;;5108529;28;20051;-57
2022/06/23 00:26:05;;;;;;;2.35;1.00;;;15.80;97.40;;;;;;5103666;28;20051;-57
2022/06/23 00:28:50;;;;;;;1.38;1.17;;;15.80;97.60;;;;;;5093560;28;20040;-58
2022/06/23 00:31:26;;;;;;;4.35;1.20;;;15.70;98.00;;;;;;5095275;28;20040;-56
2022/06/23 00:33:56;;;;;;;1.38;1.25;;;15.70;98.30;;;;;;5108721;28;20064;-58
2022/06/23 00:36:40;;;;;;;2.45;1.40;;;15.70;98.50;;;;;;5097512;28;20047;-57
2022/06/23 00:39:36;;;;;;;1.90;1.17;;;15.60;98.70;;;;;;5095527;28;20063;-57
2022/06/23 00:42:23;;;;;;;1.83;1.20;;;15.60;98.90;;;;;;5088820;28;20059;-57
2022/06/23 00:45:00;;;;;;;1.17;1.08;;;15.50;99.20;;;;;;5091782;28;20478;-56
2022/06/23 00:47:45;;;;;;;2.63;1.30;;;15.50;99.60;;;;;;5103458;28;20054;-57
2022/06/23 00:50:12;;;;;;;1.10;1.00;;;15.40;99.90;;;;;;5091393;28;20040;-55
2022/06/23 00:52:49;;;;;;;1.70;0.80;;;15.40;99.90;;;;;;5097539;28;20051;-56
2022/06/23 00:55:34;;;;;;;4.65;1.10;;;15.30;99.90;;;;;;5108602;28;20042;-55
2022/06/23 00:58:16;;;;;;;1.92;1.05;;;15.30;99.90;;;;;;5106623;28;20055;-57
2022/06/23 01:00:44;;;;;;;4.13;1.20;;;15.30;99.90;;;;;;5098134;28;20040;-56
2022/06/23 01:03:15;;;;;;;1.95;1.40;;;15.20;99.90;;;;;;5105946;28;20059;-56
2022/06/23 01:05:50;;;;;;;3.20;1.27;;;15.10;99.90;;;;;;5098137;28;20051;-55
2022/06/23 01:08:35;;;;;;;2.85;1.17;;;15.10;99.90;;;;;;5092163;28;20493;-55
2022/06/23 01:11:23;;;;;;;2.08;1.48;;;15.10;99.90;;;;;;5102352;28;20044;-55
2022/06/23 01:14:15;;;;;;;1.77;1.13;;;15.00;99.90;;;;;;5105142;28;20055;-55
2022/06/23 01:16:45;;;;;;;2.63;1.30;;;14.90;99.90;;;;;;5108686;28;20055;-56
2022/06/23 01:19:37;;;;;;;2.38;0.95;;;14.90;99.90;;;;;;5108336;28;20051;-55
2022/06/23 01:22:16;;;;;;;1.67;1.40;;;14.90;99.90;;;;;;5116621;28;20217;-55
2022/06/23 01:25:04;;;;;;;2.13;1.17;;;14.80;99.90;;;;;;5088902;28;20515;-55
2022/06/23 01:28:14;;;;;;;1.92;1.30;;;14.80;99.90;;;;;;5100783;28;20051;-55
2022/06/23 01:30:50;;;;;;;1.67;1.13;;;14.70;99.90;;;;;;5102091;28;20055;-56
2022/06/23 01:33:33;;;;;;;3.05;1.13;;;14.70;99.90;;;;;;5105279;28;20491;-55
2022/06/23 01:36:12;;;;;;;1.40;1.25;;;14.70;99.90;;;;;;5095988;28;20043;-59
2022/06/23 01:39:01;;;;;;;3.35;1.40;;;14.60;99.90;;;;;;5099534;28;20395;-56
2022/06/23 01:41:41;;;;;;;9.43;1.80;;;14.60;99.90;;;;;;5098372;28;20040;-56
2022/06/23 01:44:38;;;;;;;1.83;1.48;;;14.60;99.90;;;;;;5090042;28;20483;-57
2022/06/23 01:47:39;;;;;;;3.45;1.48;;;14.50;99.90;;;;;;5098808;28;20036;-58
2022/06/23 01:50:13;;;;;;;2.90;1.30;;;14.50;99.90;;;;;;5113987;28;20418;-56
2022/06/23 01:52:45;;;;;;;3.70;2.53;;;14.40;99.90;;;;;;5094333;28;20669;-58
2022/06/23 01:55:22;;;;;;;3.05;1.55;;;14.40;99.90;;;;;;5093835;28;20055;-58
2022/06/23 01:58:00;;;;;;;1.77;1.45;;;14.30;99.90;;;;;;5092913;28;20365;-56
2022/06/23 02:00:28;;;;;;;3.03;1.70;;;14.30;99.90;;;;;;5093535;28;20048;-58
2022/06/23 02:03:23;;;;;;;2.25;1.30;;;14.30;99.90;;;;;;5096644;28;20043;-58
2022/06/23 02:06:19;;;;;;;3.63;2.10;;;14.30;99.90;;;;;;5106024;28;20060;-58
2022/06/23 02:09:03;;;;;;;2.83;1.58;;;14.20;99.90;;;;;;5110306;28;20399;-58
2022/06/23 02:11:48;;;;;;;5.35;1.92;;;14.20;99.90;;;;;;5106525;28;20046;-58
2022/06/23 02:14:48;;;;;;;2.38;1.63;;;14.20;99.90;;;;;;5114130;28;20047;-58
2022/06/23 02:17:25;;;;;;;;;;;14.20;99.90;;;;;;5111560;28;20050;-56
2022/06/23 02:19:54;;;;;;;2.45;1.42;;;14.20;99.90;;;;;;5112251;28;19924;-55
2022/06/23 02:22:52;;;;;;;3.47;1.65;;;14.10;99.90;;;;;;5110178;28;20191;-56
2022/06/23 02:25:25;;;;;;;1.98;1.58;;;14.10;99.90;;;;;;5101695;28;20062;-55
2022/06/23 02:28:12;;;;;;;3.30;1.77;;;14.10;99.90;;;;;;5092678;28;20077;-57
2022/06/23 02:30:50;;;;;;;5.50;2.00;;;14.10;99.90;;;;;;5102424;28;20047;-57
2022/06/23 02:33:31;;;;;;;2.58;1.77;;;14.00;99.90;;;;;;5111352;28;20047;-57
2022/06/23 02:36:13;;;;;;;3.45;1.65;;;14.00;99.90;;;;;;5109644;28;20063;-57
2022/06/23 02:38:42;;;;;;;3.03;1.92;;;14.00;99.90;;;;;;5113868;28;20044;-55
2022/06/23 02:41:34;;;;;;;6.22;2.17;;;14.00;99.90;;;;;;5108485;28;20059;-55
2022/06/23 02:44:13;;;;;;;3.63;1.95;;;13.90;99.90;;;;;;5109730;28;20044;-56
2022/06/23 02:47:19;;;;;;;3.10;1.90;;;13.90;99.90;;;;;;5112857;28;20498;-56
2022/06/23 02:49:52;;;;;;;3.30;2.15;;;13.90;99.90;;;;;;5110804;28;20523;-57
2022/06/23 02:52:46;;;;;;;4.45;1.90;;;13.80;99.90;;;;;;5107046;28;20048;-55
2022/06/23 02:55:43;;;;;;;5.75;2.80;;;13.80;99.90;;;;;;5096669;28;20067;-56
2022/06/23 02:58:21;;;;;;;3.38;2.22;;;13.70;99.90;;;;;;5112072;28;20390;-57
2022/06/23 03:01:01;;;;;;;4.53;2.47;;;13.70;99.90;;;;;;5111636;28;20398;-57
2022/06/23 03:03:34;;;;;;;;;;;13.70;99.90;;;;;;5112349;28;20612;-57
2022/06/23 03:06:20;;;;;;;4.35;2.35;;;13.70;99.90;;;;;;5103884;28;19927;-57
2022/06/23 03:08:53;;;;;;;3.20;2.20;;;13.70;99.90;;;;;;5114032;27;20039;-57
2022/06/23 03:11:52;;;;;;;3.20;2.10;;;13.70;99.90;;;;;;5110445;28;20040;-55
2022/06/23 03:14:39;;;;;;;5.07;2.22;;;13.60;99.90;;;;;;5112344;28;20051;-55
2022/06/23 03:17:25;;;;;;;3.70;2.38;;;13.60;99.90;;;;;;5111758;28;20055;-54
2022/06/23 03:20:04;;;;;;;5.60;2.42;;;13.60;99.90;;;;;;5096781;28;20514;-54
2022/06/23 03:22:51;;;;;;;3.30;2.20;;;13.60;99.90;;;;;;5102181;28;20503;-55
2022/06/23 03:25:28;;;;;;;5.70;2.20;;;13.50;99.90;;;;;;5112368;28;20048;-55
2022/06/23 03:28:07;;;;;;;3.05;1.70;;;13.50;99.90;;;;;;5091119;28;20059;-55
2022/06/23 03:30:40;;;;;;;2.60;1.92;;;13.40;99.90;;;;;;5090487;28;20494;-55
2022/06/23 03:33:20;;;;;;;5.10;2.10;;;13.90;99.90;;;;;;5109464;27;20403;-55
2022/06/23 03:35:51;;;;;;;;;;;13.40;99.90;;;;;;5105071;28;20052;-54
2022/06/23 03:41:36;;;;;;;3.70;2.33;;;13.40;99.90;;;;;;5106975;28;20337;-55
2022/06/23 03:41:39;;;;;;;4.57;2.00;;;13.40;99.90;;;;;;5094915;28;20419;-55
2022/06/23 03:44:13;;;;;;;4.43;2.70;;;13.30;99.90;;;;;;5110393;28;20047;-54
2022/06/23 03:46:55;;;;;;;4.25;2.20;;;13.40;99.90;;;;;;5105224;28;20106;-55
2022/06/23 03:49:47;;;;;;;3.42;2.30;;;13.30;99.90;;;;;;5110930;28;20047;-55
2022/06/23 03:52:40;;;;;;;5.10;2.20;;;13.30;99.90;;;;;;5099106;27;20044;-55
2022/06/23 03:55:16;;;;;;;6.93;2.38;;;13.30;99.90;;;;;;5109995;28;20048;-55
2022/06/23 03:57:53;;;;;;;3.40;2.15;;;13.30;99.90;;;;;;5107980;28;20421;-55
2022/06/23 04:00:35;;;;;;;2.90;2.38;;;13.20;99.90;;;;;;5108474;28;20054;-54
2022/06/23 04:03:24;;;;;;;4.97;2.13;;;13.20;99.90;;;;;;5107501;28;20043;-57
2022/06/23 04:05:54;;;;;;;3.50;2.38;;;13.20;99.90;;;;;;5108063;28;20047;-57
2022/06/23 04:08:34;;;;;;;6.43;2.50;;;13.20;99.90;;;;;;5110625;28;20501;-58
2022/06/23 04:11:43;;;;;;;;;;;13.20;99.90;;;;;;5105734;28;20479;-57
2022/06/23 04:13:54;;;;;;;4.93;2.25;;;13.20;99.90;;;;;;5101746;28;19919;-57
2022/06/23 04:16:24;;;;;;;4.50;2.22;;;13.20;99.90;;;;;;5104791;28;20371;-57
2022/06/23 04:18:53;;;;;;;3.83;2.10;;;13.20;99.90;;;;;;5109419;28;20035;-57
2022/06/23 04:21:24;;;;;;;4.75;2.22;;;13.20;99.90;;;;;;5104769;28;20040;-57
2022/06/23 04:23:57;;;;;;;4.90;2.83;;;13.20;99.90;;;;;;5110141;28;20379;-57
2022/06/23 04:26:37;;;;;;;6.90;3.70;;;13.20;99.90;;;;;;5103277;28;20054;-58
2022/06/23 04:29:29;;;;;;;8.13;3.40;;;13.20;99.90;;;;;;5108530;28;20268;-57
2022/06/23 04:32:16;;;;;;;6.10;3.35;;;13.20;99.90;;;;;;5096698;28;20044;-57
2022/06/23 04:34:55;;;;;;;10.18;3.95;;;13.20;99.90;;;;;;5096299;28;20036;-58
2022/06/23 04:37:36;;;;;;;6.45;3.45;;;13.20;99.90;;;;;;5104601;28;20047;-59
2022/06/23 04:40:24;;;;;;;9.43;2.92;;;13.20;99.90;;;;;;5110154;28;20054;-57
2022/06/23 04:42:58;;;;;;;7.60;3.30;;;13.20;99.90;;;;;;5089502;28;20059;-55
2022/06/23 04:45:54;;;;;;;9.65;3.53;;;13.30;99.90;;;;;;5105451;28;20078;-57
2022/06/23 04:48:34;;;;;;;9.15;3.60;;;13.30;99.90;;;;;;5095185;28;20036;-55
2022/06/23 04:51:51;;;;;;;7.75;4.07;;;13.30;99.90;;;;;;5094714;28;20051;-55
2022/06/23 04:54:25;;;;;;;5.32;2.80;;;13.30;99.90;;;;;;5064444;28;20044;-57
2022/06/23 04:57:01;;;;;;;6.65;2.95;;;13.30;99.90;;;;;;5095399;28;20051;-54
2022/06/23 04:59:44;;;;;;;6.22;2.92;;;13.30;99.90;;;;;;5095834;28;20047;-54
2022/06/23 05:02:28;;;;;;;3.30;2.40;;;13.40;99.90;;;;;;5098234;28;20050;-58
2022/06/23 05:05:04;;;;;;;3.88;2.33;;;13.40;99.90;;;;;;5104847;28;20494;-58
2022/06/23 05:07:50;;;;;;;5.82;2.28;;;13.50;99.90;;;;;;5093380;28;20043;-57
2022/06/23 05:10:48;;;;;;;4.60;2.88;;;13.50;99.90;;;;;;5108176;28;20052;-57
2022/06/23 05:13:21;;;;;;;5.57;2.80;;;13.50;99.90;;;;;;5091996;28;20044;-56
2022/06/23 05:16:05;;;;;;;3.70;2.58;;;13.60;99.90;;;;;;5091595;28;20359;-55
2022/06/23 05:18:42;;;;;;;5.60;3.28;;;13.60;99.90;;;;;;5091192;28;20043;-58
2022/06/23 05:21:28;;;;;;;6.22;2.78;;;13.70;99.90;;;;;;5099464;28;20657;-56
2022/06/23 05:24:11;;;;;;;5.38;2.53;;;13.70;99.90;;;;;;5109799;28;20451;-55
2022/06/23 05:26:54;;;;;;;4.43;2.75;;;13.80;99.90;;;;;;5097656;28;20491;-57
2022/06/23 05:29:31;;;;;;;4.20;2.47;;;13.90;99.90;;;;;;5094159;28;20048;-55
2022/06/23 05:32:15;;;;;;;4.13;2.60;;;13.90;99.90;;;;;;5103261;28;20418;-55
2022/06/23 05:35:07;;;;;;;6.38;3.13;;;14.00;99.90;;;;;;5105518;28;20040;-57
2022/06/23 05:37:48;;;;;;;4.25;2.90;;;14.00;99.90;;;;;;5103143;28;20055;-57
2022/06/23 05:40:28;;;;;;;6.00;3.15;;;14.10;99.90;;;;;;5100905;28;20058;-57
2022/06/23 05:42:58;;;;;;;;;;;14.20;99.90;;;;;;5109643;28;20055;-58
2022/06/23 05:45:28;;;;;;;5.07;3.42;;;14.20;99.90;;;;;;5109572;28;19934;-58
2022/06/23 05:47:59;;;;;;;5.70;2.95;;;14.30;99.90;;;;;;5089464;28;20387;-56
2022/06/23 05:50:33;;;;;;;;;;;14.40;99.90;;;;;;5097736;28;20093;-55
2022/06/23 05:53:10;;;;;;;4.10;3.13;;;14.40;99.90;;;;;;5102475;28;20386;-55
2022/06/23 05:55:41;;;;;;;7.10;3.83;;;14.50;99.90;;;;;;5106613;28;20400;-55
2022/06/23 05:58:20;;;;;;;3.40;2.90;;;14.60;99.90;;;;;;5101292;28;20527;-55
2022/06/23 06:01:04;;;;;;;4.30;2.83;;;14.70;99.90;;;;;;5105989;28;20505;-54
2022/06/23 06:03:43;;;;;;;3.80;2.60;;;14.80;99.90;;;;;;5109423;28;20047;-55
2022/06/23 06:06:11;;;;;;;;;;;14.80;99.90;;;;;;5100649;28;20578;-55
2022/06/23 06:11:51;;;;;;;4.22;2.65;;;15.00;99.90;;;;;;5106492;28;20048;-55
2022/06/23 06:14:24;;;;;;;3.55;2.75;;;15.10;99.90;;;;;;5112472;28;20048;-55
2022/06/23 06:16:53;;;;;;;5.47;2.97;;;15.20;99.90;;;;;;5105004;28;20044;-55
2022/06/23 06:19:23;;;;;;;5.85;2.88;;;15.30;99.90;;;;;;5108488;28;20101;-55
2022/06/23 06:21:55;;;;;;;4.68;3.65;;;15.40;99.90;;;;;;5103772;28;20054;-57
2022/06/23 06:24:31;;;;;;;11.73;3.33;;;15.60;99.90;;;;;;5111023;28;20040;-56
2022/06/23 06:27:01;;;;;;;5.22;3.38;;;15.70;99.90;;;;;;5107023;28;20055;-57
2022/06/23 06:29:37;;;;;;;7.63;3.95;;;15.80;99.90;;;;;;5108300;28;20051;-57
2022/06/23 06:32:28;;;;;;;5.63;3.60;;;16.00;99.90;;;;;;5098218;28;20043;-57
2022/06/23 06:35:05;;;;;;;6.55;3.80;;;16.10;99.90;;;;;;5109280;28;20059;-57
2022/06/23 06:37:42;;;;;;;12.73;3.53;;;16.30;99.90;;;;;;5096434;28;20051;-57
2022/06/23 06:40:11;;;;;;;5.70;4.13;;;16.40;99.90;;;;;;5105828;28;20055;-57
2022/06/23 06:42:44;;;;;;;8.85;4.43;;;16.60;99.90;;;;;;5111464;28;20056;-57
2022/06/23 06:45:16;;;;;;;5.75;4.18;;;16.70;99.90;;;;;;5099384;28;20511;-56
2022/06/23 06:47:45;;;;;;;6.45;3.90;;;16.90;99.90;;;;;;5094591;28;20040;-55
2022/06/23 06:50:24;;;;;;;6.95;3.78;;;17.00;99.90;;;;;;5092947;28;20047;-57
2022/06/23 06:52:53;;;;;;;7.80;3.97;;;17.10;99.90;;;;;;5103922;28;20036;-56
2022/06/23 06:55:31;;;;;;;8.48;3.75;;;17.20;99.90;;;;;;5093422;28;20047;-55
2022/06/23 06:58:24;;;;;;;7.68;4.00;;;17.30;99.90;;;;;;5107007;28;20047;-57
2022/06/23 07:00:57;;;;;;;7.78;3.72;;;17.50;99.90;;;;;;5109692;28;20036;-57
2022/06/23 07:03:27;;;;;;;7.00;4.10;;;17.60;99.90;;;;;;5107253;28;20062;-57
2022/06/23 07:06:04;;;;;;;;;;;17.60;99.90;;;;;;5101477;27;20048;-57
2022/06/23 07:09:03;;;;;;;11.43;4.60;;;17.70;99.90;;;;;;5099328;28;19923;-58
2022/06/23 07:11:45;;;;;;;8.13;4.47;;;17.80;99.90;;;;;;5110608;28;20048;-58
2022/06/23 07:14:13;;;;;;;6.90;3.83;;;17.90;99.90;;;;;;5110231;28;20051;-58
2022/06/23 07:17:14;;;;;;;8.80;3.95;;;18.00;99.90;;;;;;5108218;28;20044;-58
2022/06/23 07:19:51;;;;;;;7.43;4.13;;;18.10;99.90;;;;;;5104319;28;20052;-58
2022/06/23 07:22:35;;;;;;;5.38;4.15;;;18.20;99.90;;;;;;5107708;28;20418;-57
2022/06/23 07:25:23;;;;;;;5.40;4.10;;;18.30;99.90;;;;;;5098310;28;20434;-58
2022/06/23 07:28:00;;;;;;;10.45;4.10;;;18.30;99.90;;;;;;5104327;28;20054;-59
2022/06/23 07:30:38;;;;;;;9.45;4.22;;;18.40;99.90;;;;;;5107811;28;20043;-58
2022/06/23 07:33:17;;;;;;;6.85;3.65;;;18.50;99.90;;;;;;5109594;28;20047;-59
2022/06/23 07:36:08;;;;;;;15.02;4.47;;;18.60;99.90;;;;;;5103493;28;20040;-57
2022/06/23 07:38:39;;;;;;;4.60;4.00;;;18.70;99.90;;;;;;5097716;28;20047;-57
2022/06/23 07:41:44;;;;;;;7.40;3.88;;;18.80;99.90;;;;;;5091096;28;20048;-58
2022/06/23 07:44:32;;;;;;;4.78;3.33;;;18.90;99.90;;;;;;5098948;28;20043;-58
2022/06/23 07:47:01;;;;;;;8.00;3.63;;;19.00;99.90;;;;;;5095671;28;20035;-57
2022/06/23 07:49:32;;;;;;;7.68;4.00;;;19.20;99.90;;;;;;5086868;28;20043;-55
2022/06/23 07:52:01;;;;;;;7.43;3.97;;;19.20;99.90;;;;;;5087813;28;20043;-56
2022/06/23 07:54:36;;;;;;;8.05;4.05;;;19.40;99.90;;;;;;5086643;28;20114;-55
2022/06/23 07:57:04;;;;;;;10.27;4.80;;;19.50;99.90;;;;;;5094218;28;20048;-56
2022/06/23 07:59:59;;;;;;;5.70;4.05;;;19.50;99.90;;;;;;5109411;28;20058;-56
2022/06/23 08:02:54;;;;;;;10.30;3.63;;;19.60;99.90;;;;;;5107888;28;20039;-56
2022/06/23 08:05:26;;;;;;;8.02;4.18;;;19.80;99.90;;;;;;5102289;28;20044;-56
2022/06/23 08:07:55;;;;;;;7.68;4.00;;;19.80;99.90;;;;;;5104494;28;20036;-57
2022/06/23 08:10:27;;;;;;;8.10;4.40;;;19.90;99.90;;;;;;5109243;28;20047;-57
2022/06/23 08:12:59;;;;;;;8.45;4.07;;;20.00;99.90;;;;;;5110220;28;20248;-57
2022/06/23 08:18:38;;;;;;;6.65;3.78;;;20.20;99.90;;;;;;5105623;28;20043;-56
2022/06/23 08:21:37;;;;;;;6.93;3.47;;;20.40;99.90;;;;;;5099873;28;20055;-57
2022/06/23 08:24:15;;;;;;;6.72;3.72;;;20.50;99.90;;;;;;5099507;28;20419;-57
2022/06/23 08:26:48;;;;;;;7.20;3.83;;;20.60;99.90;;;;;;5103247;28;20052;-57
2022/06/23 08:29:21;;;;;;;6.95;3.67;;;20.70;99.90;;;;;;5109682;28;20047;-57
2022/06/23 08:31:49;;;;;;;7.32;3.55;;;20.80;99.90;;;;;;5104966;28;20044;-57
2022/06/23 08:34:32;;;;;;;6.78;3.85;;;20.90;99.90;;;;;;5103327;28;20036;-57
2022/06/23 08:37:31;;;;;;;8.45;4.40;;;20.90;99.90;;;;;;5103011;28;20138;-56
2022/06/23 08:40:25;;;;;;;9.05;4.20;;;21.00;99.90;;;;;;5101380;28;20051;-57
2022/06/23 08:43:08;;;;;;;7.00;4.25;;;21.00;99.90;;;;;;5109740;28;20059;-57
2022/06/23 08:45:50;;;;;;;5.07;3.22;;;21.10;99.90;;;;;;5094918;28;20036;-56
2022/06/23 08:48:22;;;;;;;8.85;3.60;;;21.20;99.90;;;;;;5092261;28;20044;-57
2022/06/23 08:51:05;;;;;;;10.52;4.18;;;21.30;99.90;;;;;;5107793;28;20039;-55
2022/06/23 08:53:49;;;;;;;9.32;4.25;;;21.40;99.90;;;;;;5106601;28;20039;-55
2022/06/23 08:56:30;;;;;;;7.88;3.83;;;21.60;99.90;;;;;;5107366;28;20481;-56
2022/06/23 08:59:47;;;;;;;6.05;2.92;;;21.80;99.90;;;;;;5110993;28;20043;-56
2022/06/23 09:02:30;;;;;;;5.80;3.22;;;22.10;99.90;;;;;;5087545;28;20052;-56
2022/06/23 09:05:22;;;;;;;7.88;3.90;;;22.40;99.90;;;;;;5103211;28;20040;-55
2022/06/23 09:08:22;;;;;;;8.50;3.03;;;22.60;99.90;;;;;;5109381;28;20048;-56
2022/06/23 09:11:31;;;;;;;5.47;3.40;;;22.80;99.70;;;;;;5094228;28;20063;-55
2022/06/23 09:14:16;;;;;;;5.63;2.90;;;22.90;99.90;;;;;;5095732;28;20051;-55
2022/06/23 09:17:11;;;;;;;5.97;2.80;;;23.00;99.60;;;;;;5102599;28;20290;-55
2022/06/23 09:20:11;;;;;;;8.25;3.10;;;23.00;98.60;;;;;;5107678;28;20071;-56
2022/06/23 09:22:43;;;;;;;7.88;3.47;;;23.10;99.00;;;;;;5097430;28;20044;-57
2022/06/23 09:25:17;;;;;;;7.45;3.03;;;23.10;98.70;;;;;;5099503;28;20044;-57
2022/06/23 09:28:10;;;;;;;10.57;3.30;;;23.20;98.80;;;;;;5094893;28;20065;-56
2022/06/23 09:30:46;;;;;;;9.00;3.03;;;23.20;98.20;;;;;;5110902;28;20058;-57
2022/06/23 09:33:33;;;;;;;10.15;2.88;;;23.20;98.50;;;;;;5109430;28;20047;-57
2022/06/23 09:36:39;;;;;;;5.00;3.03;;;23.30;97.80;;;;;;5093683;28;20052;-56
2022/06/23 09:39:41;;;;;;;5.78;2.90;;;23.40;97.10;;;;;;5092478;28;20044;-57
2022/06/23 09:42:32;;;;;;;11.60;3.08;;;23.50;97.10;;;;;;5093206;28;20056;-57
2022/06/23 09:45:12;;;;;;;12.02;3.28;;;23.50;96.60;;;;;;5092972;28;20502;-57
2022/06/23 09:47:54;;;;;;;4.70;3.00;;;23.60;95.80;;;;;;5089898;28;20427;-57
2022/06/23 09:50:25;;;;;;;7.63;2.10;;;23.70;95.40;;;;;;5089025;28;20476;-56
2022/06/23 09:53:20;;;;;;;6.95;2.65;;;23.80;95.80;;;;;;5092382;28;20044;-56
2022/06/23 09:56:29;;;;;;;6.03;2.65;;;23.80;95.00;;;;;;5093639;28;20048;-56
2022/06/23 09:59:08;;;;;;;13.95;2.38;;;23.90;94.40;;;;;;5092514;28;20048;-56
2022/06/23 10:01:48;;;;;;;11.68;2.38;;;24.00;93.90;;;;;;5092367;28;20044;-56
2022/06/23 10:04:37;;;;;;;7.45;2.22;;;24.10;93.70;;;;;;5092065;28;20048;-57
2022/06/23 10:07:26;;;;;;;4.43;1.88;;;24.20;93.80;;;;;;5090803;28;20040;-57
2022/06/23 10:10:38;;;;;;;3.58;1.83;;;24.40;93.20;;;;;;5089173;28;20047;-57
2022/06/23 10:13:33;;;;;;;5.57;1.73;;;24.50;92.40;;;;;;5080721;28;20063;-57
2022/06/23 10:16:09;;;;;;;5.15;1.60;;;24.70;92.00;;;;;;5092519;28;20058;-55
2022/06/23 10:19:04;;;;;;;6.28;1.98;;;24.80;91.70;;;;;;5090740;28;20055;-56
2022/06/23 10:21:53;;;;;;;6.97;2.63;;;24.90;91.40;;;;;;5089240;28;20475;-56
2022/06/23 10:24:39;;;;;;;5.07;2.45;;;25.00;91.20;;;;;;5091206;28;20051;-58
2022/06/23 10:27:21;;;;;;;3.38;1.60;;;25.10;90.90;;;;;;5089159;28;20055;-57
2022/06/23 10:30:20;;;;;;;4.80;2.30;;;25.30;90.70;;;;;;5089274;28;20052;-58
2022/06/23 10:33:47;;;;;;;3.70;1.85;;;25.40;89.80;;;;;;5092168;28;20048;-57
2022/06/23 10:36:23;;;;;;;5.75;2.42;;;25.50;87.90;;;;;;5091805;28;20040;-57
2022/06/23 10:39:25;;;;;;;8.48;2.30;;;25.60;87.40;;;;;;5100860;28;20525;-57
2022/06/23 10:42:19;;;;;;;4.72;2.03;;;25.70;84.20;;;;;;5092421;28;20043;-55
2022/06/23 10:45:07;;;;;;;6.45;1.88;;;25.70;85.20;;;;;;5091853;28;20040;-56
2022/06/23 10:47:54;;;;;;;10.27;2.30;;;25.70;84.30;;;;;;5095720;28;20039;-57
2022/06/23 10:50:48;;;;;;;5.85;2.30;;;25.70;85.30;;;;;;5092092;28;20062;-56
2022/06/23 10:53:46;;;;;;;8.10;2.03;;;25.80;84.40;;;;;;5092008;28;20040;-55
2022/06/23 10:56:29;;;;;;;3.35;1.80;;;25.90;84.90;;;;;;5088804;28;20058;-55
2022/06/23 10:58:57;;;;;;;4.07;1.85;;;26.10;85.00;;;;;;5088471;28;20062;-55
2022/06/23 11:02:00;;;;;;;2.55;1.70;;;26.30;84.30;;;;;;5072887;28;20044;-55
2022/06/23 11:04:46;;;;;;;8.93;2.35;;;26.40;82.80;;;;;;5095919;28;20046;-55
2022/06/23 11:07:41;;;;;;;8.50;2.45;;;26.50;82.30;;;;;;5098293;28;20046;-55
2022/06/23 11:10:23;;;;;;;8.48;2.80;;;26.70;82.80;;;;;;5101722;28;20048;-56
2022/06/23 11:12:51;;;;;;;5.05;2.63;;;26.90;82.60;;;;;;5100592;28;20036;-55
2022/06/23 11:15:40;;;;;;;4.88;2.25;;;27.00;82.30;;;;;;5108014;28;20036;-54
2022/06/23 11:18:35;;;;;;;5.05;2.05;;;27.20;82.20;;;;;;5098937;28;20058;-56
2022/06/23 11:21:29;;;;;;;6.15;2.22;;;27.30;79.90;;;;;;5104029;28;20553;-60
2022/06/23 11:24:16;;;;;;;4.55;2.45;;;27.40;79.90;;;;;;5111606;28;20051;-56
2022/06/23 11:26:49;;;;;;;5.40;2.65;;;27.50;79.30;;;;;;5092566;28;20403;-56
2022/06/23 11:29:45;;;;;;;6.57;2.42;;;27.60;78.60;;;;;;5093863;28;20058;-59
2022/06/23 11:32:26;;;;;;;5.93;1.95;;;27.80;78.50;;;;;;5102592;28;20401;-58
2022/06/23 11:35:18;;;;;;;2.25;1.88;;;27.90;77.00;;;;;;5103153;28;20585;-59
2022/06/23 11:37:55;;;;;;;3.35;1.90;;;28.00;76.60;;;;;;5101924;28;20052;-60
2022/06/23 11:40:33;;;;;;;6.85;2.08;;;28.10;75.50;;;;;;5090901;28;20051;-59
2022/06/23 11:43:20;;;;;;;3.88;1.95;;;27.90;75.40;;;;;;5091933;28;20051;-58
2022/06/23 11:46:02;;;;;;;5.18;2.33;;;27.70;76.40;;;;;;5106041;28;20047;-57
2022/06/23 11:49:03;;;;;;;4.13;2.15;;;27.70;75.90;;;;;;5101700;28;20570;-57
2022/06/23 11:51:48;;;;;;;4.88;2.13;;;27.60;75.90;;;;;;5111019;28;20044;-57
2022/06/23 11:54:22;;;;;;;6.03;1.90;;;27.50;75.10;;;;;;5110985;28;20051;-58
2022/06/23 11:56:49;;;;;;;6.75;2.30;;;27.60;75.60;;;;;;5109284;28;20052;-57
2022/06/23 11:59:55;;;;;;;5.40;1.90;;;27.80;75.10;;;;;;5104455;28;20536;-58
2022/06/23 12:03:00;;;;;;;2.83;1.65;;;28.30;74.70;;;;;;5102843;28;20036;-58
2022/06/23 12:05:40;;;;;;;5.80;1.80;;;28.60;71.70;;;;;;5095405;28;20048;-57
2022/06/23 12:08:27;;;;;;;5.05;1.85;;;29.10;70.40;;;;;;5089883;28;20051;-57
2022/06/23 12:10:55;;;;;;;7.50;1.85;;;29.30;68.60;;;;;;5088465;28;20052;-57
2022/06/23 12:13:26;;;;;;;2.70;1.50;;;29.30;66.80;;;;;;5086810;28;20044;-56
2022/06/23 12:15:55;;;;;;;1.98;1.70;;;29.10;67.40;;;;;;5088321;28;20036;-57
2022/06/23 12:18:32;;;;;;;4.97;1.58;;;28.80;67.60;;;;;;5086800;28;20052;-57
2022/06/23 12:21:13;;;;;;;2.85;1.52;;;28.50;67.40;;;;;;5086735;28;20052;-57
2022/06/23 12:23:52;;;;;;;5.28;1.90;;;28.50;68.90;;;;;;5086767;28;20048;-57
2022/06/23 12:26:29;;;;;;;4.20;1.67;;;28.70;68.40;;;;;;5086480;28;20044;-57
2022/06/23 12:29:23;;;;;;;4.93;1.48;;;28.80;68.20;;;;;;5089373;28;20067;-57
2022/06/23 12:32:16;;;;;;;2.72;1.50;;;29.00;68.00;;;;;;5089164;28;20051;-57
2022/06/23 12:34:50;;;;;;;3.47;1.35;;;29.10;67.50;;;;;;5090039;28;20048;-56
2022/06/23 12:37:39;;;;;;;3.10;1.63;;;29.10;68.50;;;;;;5089977;28;20047;-58
2022/06/23 12:40:07;;;;;;;4.53;1.55;;;29.40;66.60;;;;;;5088186;28;20056;-57
2022/06/23 12:42:49;;;;;;;6.10;1.73;;;29.40;66.60;;;;;;5089420;28;20036;-57
2022/06/23 12:45:30;;;;;;;3.88;1.77;;;29.40;66.30;;;;;;5088583;28;20063;-57
2022/06/23 12:48:09;;;;;;;3.55;1.88;;;29.30;66.70;;;;;;5089683;28;20040;-57
2022/06/23 12:51:01;;;;;;;5.13;1.90;;;29.40;67.50;;;;;;5090659;28;20044;-57
2022/06/23 12:53:34;;;;;;;1.88;1.40;;;29.60;67.00;;;;;;5089248;28;20044;-57
2022/06/23 12:56:14;;;;;;;3.45;1.50;;;29.90;66.50;;;;;;5088766;28;20507;-57
2022/06/23 12:58:56;;;;;;;5.75;1.70;;;30.20;65.00;;;;;;5089834;28;20105;-58
2022/06/23 13:01:38;;;;;;;2.58;1.80;;;30.20;63.40;;;;;;5088772;28;20051;-57
2022/06/23 13:04:36;;;;;;;2.88;1.50;;;30.10;65.10;;;;;;5090072;28;20495;-57
2022/06/23 13:07:08;;;;;;;2.85;1.48;;;29.80;65.40;;;;;;5088511;28;20047;-57
2022/06/23 13:09:52;;;;;;;6.25;2.13;;;29.50;65.60;;;;;;5089531;28;20044;-57
2022/06/23 13:13:03;;;;;;;5.65;1.75;;;29.30;66.20;;;;;;5089587;28;20044;-57
2022/06/23 13:16:00;;;;;;;2.63;1.65;;;29.00;66.50;;;;;;5089633;28;20066;-58
2022/06/23 13:18:39;;;;;;;5.82;1.80;;;28.90;66.90;;;;;;5089781;28;20055;-57
2022/06/23 13:21:12;;;;;;;4.03;1.70;;;28.90;66.50;;;;;;5089834;28;20071;-57
2022/06/23 13:23:48;;;;;;;6.00;1.60;;;28.80;66.60;;;;;;5089879;28;20040;-57
2022/06/23 13:26:33;;;;;;;5.40;2.15;;;28.80;65.80;;;;;;5089380;28;20491;-56
2022/06/23 13:29:18;;;;;;;6.10;1.73;;;28.80;66.10;;;;;;5088578;28;20048;-56
2022/06/23 13:32:07;;;;;;;2.72;1.50;;;28.70;65.80;;;;;;5089540;28;20044;-56
2022/06/23 13:35:16;;;;;;;4.68;1.67;;;28.60;65.90;;;;;;5089723;28;20052;-56
2022/06/23 13:37:53;;;;;;;6.70;2.38;;;28.40;66.40;;;;;;5087740;28;20250;-57
2022/06/23 13:40:28;;;;;;;5.43;1.83;;;28.20;67.80;;;;;;5091280;28;20052;-57
2022/06/23 13:43:07;;;;;;;7.20;1.85;;;28.00;68.00;;;;;;5093258;28;20044;-57
2022/06/23 13:46:02;;;;;;;4.13;1.55;;;27.70;68.30;;;;;;5093335;28;20051;-56
2022/06/23 13:48:46;;;;;;;3.38;1.27;;;27.50;69.10;;;;;;5092233;28;20495;-56
2022/06/23 13:51:32;;;;;;;4.72;1.52;;;27.20;69.30;;;;;;5092239;28;20529;-56
2022/06/23 13:54:27;;;;;;;3.03;1.60;;;27.10;69.90;;;;;;5092762;28;20056;-56
2022/06/23 13:57:19;;;;;;;9.13;1.60;;;26.90;69.90;;;;;;5093034;28;20130;-56
2022/06/23 14:00:16;;;;;;;1.98;1.50;;;26.80;70.40;;;;;;5091565;28;20483;-56
2022/06/23 14:03:09;;;;;;;1.20;1.10;;;26.80;70.70;;;;;;5089348;28;20082;-57
2022/06/23 14:05:51;;;;;;;1.48;1.20;;;26.70;70.20;;;;;;5089928;28;20059;-56
2022/06/23 14:08:40;;;;;;;1.15;1.05;;;26.60;69.60;;;;;;5090339;28;20392;-57
2022/06/23 14:11:20;;;;;;;6.57;1.40;;;26.40;69.80;;;;;;5089420;28;20051;-57
2022/06/23 14:14:18;;;;;;;1.38;0.93;;;26.20;70.10;;;;;;5090924;28;20052;-57